sensor_id;sensor_type;location;lat;lon;timestamp;pressure;altitude;pressure_sealevel;temperature;humidity
46111;BME280;31849;55.992;37.252;2022-08-27T00:04:54;99723.50;;;18.24;55.12
46111;BME280;31849;55.992;37.252;2022-08-27T00:09:58;99708.59;;;18.23;55.41
46111;BME280;31849;55.992;37.252;2022-08-27T00:15:06;99710.47;;;18.19;54.67
46111;BME280;31849;55.992;37.252;2022-08-27T00:20:13;99726.16;;;18.22;55.09
46111;BME280;31849;55.992;37.252;2022-08-27T00:25:17;99725.59;;;18.11;55.56
46111;BME280;31849;55.992;37.252;2022-08-27T00:30:23;99722.13;;;18.10;55.46
46111;BME280;31849;55.992;37.252;2022-08-27T00:35:27;99721.56;;;17.99;55.92
46111;BME280;31849;55.992;37.252;2022-08-27T00:40:31;99722.66;;;17.92;56.19
46111;BME280;31849;55.992;37.252;2022-08-27T00:45:39;99736.81;;;17.86;56.31
46111;BME280;31849;55.992;37.252;2022-08-27T00:50:46;99729.81;;;17.85;56.60
46111;BME280;31849;55.992;37.252;2022-08-27T00:55:54;99733.44;;;17.81;56.83
46111;BME280;31849;55.992;37.252;2022-08-27T01:01:01;99732.69;;;17.78;57.27
46111;BME280;31849;55.992;37.252;2022-08-27T01:06:09;99736.25;;;17.75;56.83
46111;BME280;31849;55.992;37.252;2022-08-27T01:11:17;99728.66;;;17.64;57.05
46111;BME280;31849;55.992;37.252;2022-08-27T01:16:25;99739.22;;;17.63;56.87
46111;BME280;31849;55.992;37.252;2022-08-27T01:21:37;99740.44;;;17.49;57.30
46111;BME280;31849;55.992;37.252;2022-08-27T01:26:45;99742.31;;;17.44;57.18
46111;BME280;31849;55.992;37.252;2022-08-27T01:31:48;99741.84;;;17.30;57.06
46111;BME280;31849;55.992;37.252;2022-08-27T01:36:52;99741.78;;;17.31;57.09
46111;BME280;31849;55.992;37.252;2022-08-27T01:42:04;99741.06;;;17.25;57.55
46111;BME280;31849;55.992;37.252;2022-08-27T01:47:09;99744.94;;;17.10;58.35
46111;BME280;31849;55.992;37.252;2022-08-27T01:52:15;99747.72;;;17.03;58.39
46111;BME280;31849;55.992;37.252;2022-08-27T01:57:21;99748.59;;;17.04;58.53
46111;BME280;31849;55.992;37.252;2022-08-27T02:02:27;99747.88;;;16.97;58.40
46111;BME280;31849;55.992;37.252;2022-08-27T02:07:31;99759.69;;;16.78;58.97
46111;BME280;31849;55.992;37.252;2022-08-27T02:12:36;99746.50;;;16.81;59.00
46111;BME280;31849;55.992;37.252;2022-08-27T02:17:40;99754.38;;;16.81;58.86
46111;BME280;31849;55.992;37.252;2022-08-27T02:22:43;99746.38;;;16.87;58.57
46111;BME280;31849;55.992;37.252;2022-08-27T02:27:50;99756.88;;;16.87;58.71
46111;BME280;31849;55.992;37.252;2022-08-27T02:32:54;99754.22;;;16.88;58.63
46111;BME280;31849;55.992;37.252;2022-08-27T02:37:57;99767.06;;;16.62;59.24
46111;BME280;31849;55.992;37.252;2022-08-27T02:43:03;99764.91;;;16.79;59.20
46111;BME280;31849;55.992;37.252;2022-08-27T02:48:07;99761.88;;;16.98;58.79
46111;BME280;31849;55.992;37.252;2022-08-27T02:53:11;99758.84;;;17.15;58.56
46111;BME280;31849;55.992;37.252;2022-08-27T02:58:16;99780.75;;;17.14;58.87
46111;BME280;31849;55.992;37.252;2022-08-27T03:03:20;99771.03;;;17.17;58.45
46111;BME280;31849;55.992;37.252;2022-08-27T03:08:23;99772.38;;;17.34;58.14
46111;BME280;31849;55.992;37.252;2022-08-27T03:13:34;99773.41;;;17.63;57.96
46111;BME280;31849;55.992;37.252;2022-08-27T03:18:38;99769.78;;;17.67;58.16
46111;BME280;31849;55.992;37.252;2022-08-27T03:23:42;99784.38;;;18.12;57.27
46111;BME280;31849;55.992;37.252;2022-08-27T03:28:47;99781.44;;;18.52;56.42
46111;BME280;31849;55.992;37.252;2022-08-27T03:33:53;99786.56;;;18.85;55.98
46111;BME280;31849;55.992;37.252;2022-08-27T03:38:57;99781.75;;;18.71;56.09
46111;BME280;31849;55.992;37.252;2022-08-27T03:44:03;99776.16;;;19.10;55.33
46111;BME280;31849;55.992;37.252;2022-08-27T03:49:07;99778.84;;;19.09;55.79
46111;BME280;31849;55.992;37.252;2022-08-27T03:54:14;99770.75;;;19.40;55.01
46111;BME280;31849;55.992;37.252;2022-08-27T03:59:19;99785.25;;;19.54;54.46
46111;BME280;31849;55.992;37.252;2022-08-27T04:04:22;99781.88;;;19.75;53.88
46111;BME280;31849;55.992;37.252;2022-08-27T04:09:26;99777.28;;;22.63;47.18
46111;BME280;31849;55.992;37.252;2022-08-27T04:14:32;99782.69;;;26.22;40.03
46111;BME280;31849;55.992;37.252;2022-08-27T04:19:36;99794.53;;;28.72;35.64
46111;BME280;31849;55.992;37.252;2022-08-27T04:24:40;99784.81;;;30.69;32.17
46111;BME280;31849;55.992;37.252;2022-08-27T04:29:45;99788.25;;;32.21;30.08
46111;BME280;31849;55.992;37.252;2022-08-27T04:34:52;99789.88;;;33.91;27.55
46111;BME280;31849;55.992;37.252;2022-08-27T04:39:56;99790.41;;;35.16;26.27
46111;BME280;31849;55.992;37.252;2022-08-27T04:45:02;99781.69;;;36.19;24.69
46111;BME280;31849;55.992;37.252;2022-08-27T04:50:07;99793.53;;;37.20;23.10
46111;BME280;31849;55.992;37.252;2022-08-27T04:55:10;99785.66;;;38.55;21.56
46111;BME280;31849;55.992;37.252;2022-08-27T05:00:16;99792.44;;;39.98;19.75
46111;BME280;31849;55.992;37.252;2022-08-27T05:05:19;99786.84;;;39.77;19.59
46111;BME280;31849;55.992;37.252;2022-08-27T05:10:24;99780.81;;;40.04;18.98
46111;BME280;31849;55.992;37.252;2022-08-27T05:15:30;99791.84;;;41.21;18.08
46111;BME280;31849;55.992;37.252;2022-08-27T05:20:41;99786.22;;;43.11;16.29
46111;BME280;31849;55.992;37.252;2022-08-27T05:25:47;99793.81;;;43.35;16.16
46111;BME280;31849;55.992;37.252;2022-08-27T05:30:54;99793.16;;;43.87;15.38
46111;BME280;31849;55.992;37.252;2022-08-27T05:35:59;99796.13;;;43.25;14.97
46111;BME280;31849;55.992;37.252;2022-08-27T05:41:05;99792.59;;;44.82;14.21
46111;BME280;31849;55.992;37.252;2022-08-27T05:46:13;99800.06;;;44.23;13.93
46111;BME280;31849;55.992;37.252;2022-08-27T05:51:19;99793.53;;;44.69;14.08
46111;BME280;31849;55.992;37.252;2022-08-27T05:56:28;99793.09;;;44.72;14.52
46111;BME280;31849;55.992;37.252;2022-08-27T06:01:35;99800.41;;;45.17;13.86
46111;BME280;31849;55.992;37.252;2022-08-27T06:06:41;99800.88;;;46.08;13.23
46111;BME280;31849;55.992;37.252;2022-08-27T06:11:45;99807.69;;;46.06;12.98
46111;BME280;31849;55.992;37.252;2022-08-27T06:16:51;99793.06;;;46.42;12.56
46111;BME280;31849;55.992;37.252;2022-08-27T06:21:55;99802.44;;;47.56;11.08
46111;BME280;31849;55.992;37.252;2022-08-27T06:27:02;99789.22;;;46.92;11.93
46111;BME280;31849;55.992;37.252;2022-08-27T06:32:07;99792.00;;;47.82;10.95
46111;BME280;31849;55.992;37.252;2022-08-27T06:37:11;99790.75;;;50.02;9.99
46111;BME280;31849;55.992;37.252;2022-08-27T06:42:15;99800.84;;;49.91;9.94
46111;BME280;31849;55.992;37.252;2022-08-27T06:47:20;99781.84;;;48.47;10.35
46111;BME280;31849;55.992;37.252;2022-08-27T06:52:24;99787.44;;;48.52;10.26
46111;BME280;31849;55.992;37.252;2022-08-27T06:57:28;99781.16;;;49.31;9.09
46111;BME280;31849;55.992;37.252;2022-08-27T07:02:33;99767.56;;;48.38;9.68
46111;BME280;31849;55.992;37.252;2022-08-27T07:07:37;99780.44;;;48.20;9.79
46111;BME280;31849;55.992;37.252;2022-08-27T07:12:49;99782.66;;;49.39;9.56
46111;BME280;31849;55.992;37.252;2022-08-27T07:17:55;99779.28;;;51.14;7.76
46111;BME280;31849;55.992;37.252;2022-08-27T07:22:58;99780.00;;;50.49;7.87
46111;BME280;31849;55.992;37.252;2022-08-27T07:28:02;99767.06;;;51.10;7.40
46111;BME280;31849;55.992;37.252;2022-08-27T07:33:07;99765.03;;;50.73;8.01
46111;BME280;31849;55.992;37.252;2022-08-27T07:38:11;99772.91;;;49.70;7.81
46111;BME280;31849;55.992;37.252;2022-08-27T07:43:15;99771.19;;;48.27;8.61
46111;BME280;31849;55.992;37.252;2022-08-27T07:48:38;99762.69;;;48.86;8.14
46111;BME280;31849;55.992;37.252;2022-08-27T07:53:43;99766.44;;;49.25;7.97
46111;BME280;31849;55.992;37.252;2022-08-27T07:58:47;99764.47;;;47.82;8.96
46111;BME280;31849;55.992;37.252;2022-08-27T08:03:52;99753.56;;;46.85;10.00
46111;BME280;31849;55.992;37.252;2022-08-27T08:08:58;99758.06;;;46.98;9.46
46111;BME280;31849;55.992;37.252;2022-08-27T08:14:03;99761.56;;;47.29;9.53
46111;BME280;31849;55.992;37.252;2022-08-27T08:19:08;99756.41;;;45.74;10.14
46111;BME280;31849;55.992;37.252;2022-08-27T08:24:12;99750.75;;;44.23;11.52
46111;BME280;31849;55.992;37.252;2022-08-27T08:29:15;99742.44;;;43.37;11.88
46111;BME280;31849;55.992;37.252;2022-08-27T08:34:21;99738.06;;;41.99;12.35
46111;BME280;31849;55.992;37.252;2022-08-27T08:39:24;99739.75;;;41.16;13.30
46111;BME280;31849;55.992;37.252;2022-08-27T08:44:32;99732.78;;;39.59;13.50
46111;BME280;31849;55.992;37.252;2022-08-27T08:49:44;99720.75;;;38.68;14.64
46111;BME280;31849;55.992;37.252;2022-08-27T08:54:49;99723.38;;;38.53;14.66
46111;BME280;31849;55.992;37.252;2022-08-27T09:00:00;99721.09;;;37.94;14.79
46111;BME280;31849;55.992;37.252;2022-08-27T09:05:08;99715.09;;;37.35;14.73
46111;BME280;31849;55.992;37.252;2022-08-27T09:10:18;99710.97;;;36.65;14.97
46111;BME280;31849;55.992;37.252;2022-08-27T09:15:28;99711.25;;;36.45;14.98
46111;BME280;31849;55.992;37.252;2022-08-27T09:20:34;99710.81;;;36.23;15.63
46111;BME280;31849;55.992;37.252;2022-08-27T09:25:40;99705.22;;;35.82;15.26
46111;BME280;31849;55.992;37.252;2022-08-27T09:30:44;99707.31;;;35.62;15.20
46111;BME280;31849;55.992;37.252;2022-08-27T09:35:49;99691.59;;;35.21;15.93
46111;BME280;31849;55.992;37.252;2022-08-27T09:40:56;99693.47;;;35.21;16.12
46111;BME280;31849;55.992;37.252;2022-08-27T09:46:05;99700.56;;;35.40;15.12
46111;BME280;31849;55.992;37.252;2022-08-27T09:51:12;99695.06;;;35.05;15.70
46111;BME280;31849;55.992;37.252;2022-08-27T09:56:27;99697.03;;;34.67;15.82
46111;BME280;31849;55.992;37.252;2022-08-27T10:01:33;99700.88;;;34.47;16.72
46111;BME280;31849;55.992;37.252;2022-08-27T10:06:46;99697.00;;;34.95;15.96
46111;BME280;31849;55.992;37.252;2022-08-27T10:11:56;99697.16;;;34.20;16.68
46111;BME280;31849;55.992;37.252;2022-08-27T10:17:12;99702.19;;;34.15;16.62
46111;BME280;31849;55.992;37.252;2022-08-27T10:22:30;99687.25;;;34.21;17.20
46111;BME280;31849;55.992;37.252;2022-08-27T10:27:42;99690.69;;;33.85;17.18
46111;BME280;31849;55.992;37.252;2022-08-27T10:32:57;99680.81;;;34.22;17.11
46111;BME280;31849;55.992;37.252;2022-08-27T10:38:13;99678.91;;;34.42;17.22
46111;BME280;31849;55.992;37.252;2022-08-27T10:43:32;99676.53;;;33.73;17.37
46111;BME280;31849;55.992;37.252;2022-08-27T10:48:45;99679.25;;;33.73;17.28
46111;BME280;31849;55.992;37.252;2022-08-27T10:53:57;99679.81;;;34.05;17.32
46111;BME280;31849;55.992;37.252;2022-08-27T10:59:12;99665.44;;;34.04;17.06
46111;BME280;31849;55.992;37.252;2022-08-27T11:04:22;99666.16;;;33.78;17.52
46111;BME280;31849;55.992;37.252;2022-08-27T11:09:35;99672.63;;;33.95;17.50
46111;BME280;31849;55.992;37.252;2022-08-27T11:14:44;99664.31;;;34.07;17.20
46111;BME280;31849;55.992;37.252;2022-08-27T11:19:54;99663.47;;;34.34;17.07
46111;BME280;31849;55.992;37.252;2022-08-27T11:25:08;99666.31;;;34.32;17.29
46111;BME280;31849;55.992;37.252;2022-08-27T11:30:19;99659.06;;;34.51;16.80
46111;BME280;31849;55.992;37.252;2022-08-27T11:35:34;99657.94;;;34.90;17.32
46111;BME280;31849;55.992;37.252;2022-08-27T11:40:58;99660.41;;;35.01;16.47
46111;BME280;31849;55.992;37.252;2022-08-27T11:46:08;99650.31;;;34.85;16.16
46111;BME280;31849;55.992;37.252;2022-08-27T11:51:24;99641.56;;;34.73;16.58
46111;BME280;31849;55.992;37.252;2022-08-27T11:56:38;99644.91;;;34.49;16.59
46111;BME280;31849;55.992;37.252;2022-08-27T12:01:42;99643.34;;;34.64;16.79
46111;BME280;31849;55.992;37.252;2022-08-27T12:06:50;99642.72;;;34.52;16.74
46111;BME280;31849;55.992;37.252;2022-08-27T12:12:04;99633.47;;;34.37;16.94
46111;BME280;31849;55.992;37.252;2022-08-27T12:17:19;99626.53;;;34.34;17.23
46111;BME280;31849;55.992;37.252;2022-08-27T12:22:51;99622.69;;;33.81;17.90
46111;BME280;31849;55.992;37.252;2022-08-27T12:28:22;99616.41;;;33.91;17.58
46111;BME280;31849;55.992;37.252;2022-08-27T12:33:31;99623.97;;;34.33;17.09
46111;BME280;31849;55.992;37.252;2022-08-27T12:38:43;99617.03;;;34.48;16.74
46111;BME280;31849;55.992;37.252;2022-08-27T12:44:04;99615.63;;;34.26;16.79
46111;BME280;31849;55.992;37.252;2022-08-27T12:49:08;99605.22;;;33.86;17.36
46111;BME280;31849;55.992;37.252;2022-08-27T12:54:40;99611.34;;;34.06;16.96
46111;BME280;31849;55.992;37.252;2022-08-27T13:00:00;99587.97;;;34.42;17.07
46111;BME280;31849;55.992;37.252;2022-08-27T13:05:06;99593.44;;;33.87;17.81
46111;BME280;31849;55.992;37.252;2022-08-27T13:10:14;99585.34;;;33.87;17.87
46111;BME280;31849;55.992;37.252;2022-08-27T13:15:19;99596.34;;;33.65;17.87
46111;BME280;31849;55.992;37.252;2022-08-27T13:20:24;99583.06;;;33.54;18.09
46111;BME280;31849;55.992;37.252;2022-08-27T13:25:29;99596.09;;;33.02;18.52
46111;BME280;31849;55.992;37.252;2022-08-27T13:30:38;99588.72;;;33.13;18.24
46111;BME280;31849;55.992;37.252;2022-08-27T13:35:43;99585.59;;;33.28;18.23
46111;BME280;31849;55.992;37.252;2022-08-27T13:40:53;99586.34;;;33.01;18.81
46111;BME280;31849;55.992;37.252;2022-08-27T13:46:01;99582.09;;;32.98;19.16
46111;BME280;31849;55.992;37.252;2022-08-27T13:51:08;99587.22;;;32.82;19.50
46111;BME280;31849;55.992;37.252;2022-08-27T13:56:23;99582.72;;;32.53;19.59
46111;BME280;31849;55.992;37.252;2022-08-27T14:01:29;99582.53;;;32.64;20.01
46111;BME280;31849;55.992;37.252;2022-08-27T14:06:38;99583.53;;;32.63;19.55
46111;BME280;31849;55.992;37.252;2022-08-27T14:11:44;99576.19;;;32.65;19.51
46111;BME280;31849;55.992;37.252;2022-08-27T14:16:57;99587.06;;;32.54;19.98
46111;BME280;31849;55.992;37.252;2022-08-27T14:22:01;99590.75;;;32.33;20.78
46111;BME280;31849;55.992;37.252;2022-08-27T14:27:09;99586.81;;;32.37;20.68
46111;BME280;31849;55.992;37.252;2022-08-27T14:32:14;99584.19;;;32.06;21.42
46111;BME280;31849;55.992;37.252;2022-08-27T14:37:20;99572.69;;;31.95;21.16
46111;BME280;31849;55.992;37.252;2022-08-27T14:42:23;99585.63;;;31.60;22.08
46111;BME280;31849;55.992;37.252;2022-08-27T14:47:49;99578.41;;;31.30;22.22
46111;BME280;31849;55.992;37.252;2022-08-27T14:52:53;99580.13;;;30.89;22.69
46111;BME280;31849;55.992;37.252;2022-08-27T14:57:57;99577.56;;;30.87;22.93
46111;BME280;31849;55.992;37.252;2022-08-27T15:03:02;99580.56;;;30.73;23.24
46111;BME280;31849;55.992;37.252;2022-08-27T15:08:06;99572.06;;;30.67;23.42
46111;BME280;31849;55.992;37.252;2022-08-27T15:13:14;99567.81;;;30.44;23.94
46111;BME280;31849;55.992;37.252;2022-08-27T15:18:20;99572.53;;;30.40;24.24
46111;BME280;31849;55.992;37.252;2022-08-27T15:23:24;99564.47;;;30.08;24.76
46111;BME280;31849;55.992;37.252;2022-08-27T15:28:28;99571.47;;;29.99;24.48
46111;BME280;31849;55.992;37.252;2022-08-27T15:33:33;99570.75;;;29.86;25.25
46111;BME280;31849;55.992;37.252;2022-08-27T15:38:36;99564.53;;;29.74;25.24
46111;BME280;31849;55.992;37.252;2022-08-27T15:43:40;99568.31;;;29.60;25.66
46111;BME280;31849;55.992;37.252;2022-08-27T15:48:45;99569.41;;;29.46;26.21
46111;BME280;31849;55.992;37.252;2022-08-27T15:53:48;99567.84;;;29.32;26.20
46111;BME280;31849;55.992;37.252;2022-08-27T15:58:52;99569.38;;;29.12;26.87
46111;BME280;31849;55.992;37.252;2022-08-27T16:03:58;99565.22;;;28.97;27.36
46111;BME280;31849;55.992;37.252;2022-08-27T16:09:03;99563.84;;;28.80;27.33
46111;BME280;31849;55.992;37.252;2022-08-27T16:14:07;99559.78;;;28.63;27.54
46111;BME280;31849;55.992;37.252;2022-08-27T16:19:13;99569.03;;;28.46;28.24
46111;BME280;31849;55.992;37.252;2022-08-27T16:24:18;99567.88;;;28.25;28.96
46111;BME280;31849;55.992;37.252;2022-08-27T16:29:22;99566.66;;;28.05;29.11
46111;BME280;31849;55.992;37.252;2022-08-27T16:34:28;99571.50;;;27.87;29.13
46111;BME280;31849;55.992;37.252;2022-08-27T16:39:31;99568.47;;;27.68;29.85
46111;BME280;31849;55.992;37.252;2022-08-27T16:44:41;99578.66;;;27.50;30.41
46111;BME280;31849;55.992;37.252;2022-08-27T16:49:46;99578.75;;;27.23;31.67
46111;BME280;31849;55.992;37.252;2022-08-27T16:55:07;99581.50;;;26.82;33.52
46111;BME280;31849;55.992;37.252;2022-08-27T17:00:13;99580.91;;;26.52;35.76
46111;BME280;31849;55.992;37.252;2022-08-27T17:05:18;99585.28;;;26.25;36.36
46111;BME280;31849;55.992;37.252;2022-08-27T17:10:39;99589.69;;;25.97;36.89
46111;BME280;31849;55.992;37.252;2022-08-27T17:15:44;99583.19;;;25.74;37.81
46111;BME280;31849;55.992;37.252;2022-08-27T17:20:56;99585.28;;;25.55;38.36
46111;BME280;31849;55.992;37.252;2022-08-27T17:26:03;99580.47;;;25.33;37.76
46111;BME280;31849;55.992;37.252;2022-08-27T17:31:08;99585.94;;;25.15;37.87
46111;BME280;31849;55.992;37.252;2022-08-27T17:36:14;99586.94;;;24.98;38.70
46111;BME280;31849;55.992;37.252;2022-08-27T17:41:22;99589.59;;;24.84;38.89
46111;BME280;31849;55.992;37.252;2022-08-27T17:46:31;99582.03;;;24.62;39.50
46111;BME280;31849;55.992;37.252;2022-08-27T17:51:36;99594.28;;;24.48;37.50
46111;BME280;31849;55.992;37.252;2022-08-27T17:56:40;99586.00;;;24.22;41.06
46111;BME280;31849;55.992;37.252;2022-08-27T18:01:45;99586.78;;;24.09;42.18
46111;BME280;31849;55.992;37.252;2022-08-27T18:06:50;99604.34;;;23.95;42.06
46111;BME280;31849;55.992;37.252;2022-08-27T18:11:54;99593.28;;;23.71;42.14
46111;BME280;31849;55.992;37.252;2022-08-27T18:16:58;99607.03;;;23.62;41.56
46111;BME280;31849;55.992;37.252;2022-08-27T18:22:04;99595.19;;;23.51;42.31
46111;BME280;31849;55.992;37.252;2022-08-27T18:27:07;99602.81;;;23.42;42.36
46111;BME280;31849;55.992;37.252;2022-08-27T18:32:11;99607.34;;;23.40;42.66
46111;BME280;31849;55.992;37.252;2022-08-27T18:37:16;99601.31;;;23.36;42.95
46111;BME280;31849;55.992;37.252;2022-08-27T18:42:20;99599.84;;;23.30;44.04
46111;BME280;31849;55.992;37.252;2022-08-27T18:47:24;99599.41;;;23.22;43.78
46111;BME280;31849;55.992;37.252;2022-08-27T18:52:29;99600.50;;;23.18;43.82
46111;BME280;31849;55.992;37.252;2022-08-27T18:57:33;99602.69;;;23.10;43.49
46111;BME280;31849;55.992;37.252;2022-08-27T19:02:39;99594.84;;;23.07;42.90
46111;BME280;31849;55.992;37.252;2022-08-27T19:07:44;99595.75;;;23.07;43.18
46111;BME280;31849;55.992;37.252;2022-08-27T19:12:49;99597.69;;;23.04;44.11
46111;BME280;31849;55.992;37.252;2022-08-27T19:17:54;99586.78;;;22.92;44.66
46111;BME280;31849;55.992;37.252;2022-08-27T19:23:01;99596.22;;;22.80;45.23
46111;BME280;31849;55.992;37.252;2022-08-27T19:28:05;99595.97;;;22.68;46.36
46111;BME280;31849;55.992;37.252;2022-08-27T19:33:10;99588.00;;;22.50;46.04
46111;BME280;31849;55.992;37.252;2022-08-27T19:38:15;99591.97;;;22.41;46.96
46111;BME280;31849;55.992;37.252;2022-08-27T19:43:19;99593.38;;;22.29;47.44
46111;BME280;31849;55.992;37.252;2022-08-27T19:48:23;99591.06;;;22.23;47.80
46111;BME280;31849;55.992;37.252;2022-08-27T19:53:28;99585.34;;;22.13;47.95
46111;BME280;31849;55.992;37.252;2022-08-27T19:58:32;99590.00;;;22.08;48.02
46111;BME280;31849;55.992;37.252;2022-08-27T20:03:36;99593.09;;;21.99;48.17
46111;BME280;31849;55.992;37.252;2022-08-27T20:08:42;99590.97;;;21.88;48.80
46111;BME280;31849;55.992;37.252;2022-08-27T20:13:48;99581.16;;;21.71;48.27
46111;BME280;31849;55.992;37.252;2022-08-27T20:18:52;99565.38;;;21.49;49.15
46111;BME280;31849;55.992;37.252;2022-08-27T20:24:03;99589.00;;;21.54;49.00
46111;BME280;31849;55.992;37.252;2022-08-27T20:29:07;99587.72;;;21.42;49.57
46111;BME280;31849;55.992;37.252;2022-08-27T20:34:15;99583.06;;;21.28;50.11
46111;BME280;31849;55.992;37.252;2022-08-27T20:39:21;99585.88;;;21.25;50.41
46111;BME280;31849;55.992;37.252;2022-08-27T20:44:26;99592.28;;;21.19;50.18
46111;BME280;31849;55.992;37.252;2022-08-27T20:49:30;99586.63;;;21.08;50.60
46111;BME280;31849;55.992;37.252;2022-08-27T20:54:37;99588.59;;;21.03;50.60
46111;BME280;31849;55.992;37.252;2022-08-27T20:59:41;99585.31;;;20.98;50.71
46111;BME280;31849;55.992;37.252;2022-08-27T21:05:07;99579.34;;;20.93;50.81
46111;BME280;31849;55.992;37.252;2022-08-27T21:10:14;99575.03;;;20.90;50.60
46111;BME280;31849;55.992;37.252;2022-08-27T21:15:18;99573.63;;;20.83;50.64
46111;BME280;31849;55.992;37.252;2022-08-27T21:20:21;99582.19;;;20.88;50.52
46111;BME280;31849;55.992;37.252;2022-08-27T21:25:26;99571.53;;;20.89;50.74
46111;BME280;31849;55.992;37.252;2022-08-27T21:30:30;99569.97;;;20.85;50.47
46111;BME280;31849;55.992;37.252;2022-08-27T21:35:34;99571.69;;;20.86;50.46
46111;BME280;31849;55.992;37.252;2022-08-27T21:40:39;99575.25;;;20.85;50.78
46111;BME280;31849;55.992;37.252;2022-08-27T21:45:43;99578.22;;;20.78;50.66
46111;BME280;31849;55.992;37.252;2022-08-27T21:50:46;99571.00;;;20.81;50.75
46111;BME280;31849;55.992;37.252;2022-08-27T21:55:55;99568.91;;;20.89;49.89
46111;BME280;31849;55.992;37.252;2022-08-27T22:00:59;99562.69;;;20.90;50.87
46111;BME280;31849;55.992;37.252;2022-08-27T22:06:05;99551.59;;;20.82;51.24
46111;BME280;31849;55.992;37.252;2022-08-27T22:11:12;99545.47;;;20.82;51.22
46111;BME280;31849;55.992;37.252;2022-08-27T22:16:22;99545.66;;;20.77;51.40
46111;BME280;31849;55.992;37.252;2022-08-27T22:21:26;99554.03;;;20.66;51.60
46111;BME280;31849;55.992;37.252;2022-08-27T22:26:31;99546.78;;;20.71;51.74
46111;BME280;31849;55.992;37.252;2022-08-27T22:31:34;99547.94;;;20.64;51.50
46111;BME280;31849;55.992;37.252;2022-08-27T22:36:38;99550.53;;;20.66;51.55
46111;BME280;31849;55.992;37.252;2022-08-27T22:41:43;99555.69;;;20.69;51.51
46111;BME280;31849;55.992;37.252;2022-08-27T22:46:49;99545.06;;;20.70;52.06
46111;BME280;31849;55.992;37.252;2022-08-27T22:51:54;99543.22;;;20.72;52.12
46111;BME280;31849;55.992;37.252;2022-08-27T22:56:59;99536.78;;;20.78;51.59
46111;BME280;31849;55.992;37.252;2022-08-27T23:02:03;99545.47;;;20.82;51.95
46111;BME280;31849;55.992;37.252;2022-08-27T23:07:07;99550.81;;;20.80;51.68
46111;BME280;31849;55.992;37.252;2022-08-27T23:12:12;99547.22;;;20.81;51.52
46111;BME280;31849;55.992;37.252;2022-08-27T23:17:16;99535.22;;;20.74;51.88
46111;BME280;31849;55.992;37.252;2022-08-27T23:22:20;99543.16;;;20.74;51.97
46111;BME280;31849;55.992;37.252;2022-08-27T23:27:25;99532.81;;;20.68;52.39
46111;BME280;31849;55.992;37.252;2022-08-27T23:32:31;99531.13;;;20.67;52.15
46111;BME280;31849;55.992;37.252;2022-08-27T23:37:35;99528.50;;;20.67;51.92
46111;BME280;31849;55.992;37.252;2022-08-27T23:42:41;99524.16;;;20.64;51.68
46111;BME280;31849;55.992;37.252;2022-08-27T23:47:45;99519.06;;;20.60;51.93
46111;BME280;31849;55.992;37.252;2022-08-27T23:52:49;99521.03;;;20.54;51.59
46111;BME280;31849;55.992;37.252;2022-08-27T23:57:56;99519.47;;;20.50;51.81
